sensor_id;sensor_type;location;lat;lon;timestamp;pressure;altitude;pressure_sealevel;temperature;humidity
804;BME280;25687;49.976;8.240;2023-02-01T00:00:59;100601.91;;;4.36;100.00
804;BME280;25687;49.976;8.240;2023-02-01T00:03:24;100610.41;;;4.37;100.00
804;BME280;25687;49.976;8.240;2023-02-01T00:05:59;100609.50;;;4.40;100.00
804;BME280;25687;49.976;8.240;2023-02-01T00:08:24;100613.75;;;4.41;100.00
804;BME280;25687;49.976;8.240;2023-02-01T00:10:57;100609.50;;;4.40;100.00
804;BME280;25687;49.976;8.240;2023-02-01T00:13:22;100606.91;;;4.41;100.00
804;BME280;25687;49.976;8.240;2023-02-01T00:15:48;100602.81;;;4.34;100.00
804;BME280;25687;49.976;8.240;2023-02-01T00:18:13;100598.53;;;4.36;100.00
804;BME280;25687;49.976;8.240;2023-02-01T00:20:38;100602.78;;;4.37;100.00
804;BME280;25687;49.976;8.240;2023-02-01T00:23:03;100595.09;;;4.39;100.00
804;BME280;25687;49.976;8.240;2023-02-01T00:25:28;100587.63;;;4.31;100.00
804;BME280;25687;49.976;8.240;2023-02-01T00:27:54;100585.28;;;4.20;100.00
804;BME280;25687;49.976;8.240;2023-02-01T00:30:19;100587.81;;;4.20;100.00
804;BME280;25687;49.976;8.240;2023-02-01T00:32:45;100596.97;;;4.29;100.00
804;BME280;25687;49.976;8.240;2023-02-01T00:35:10;100581.66;;;4.30;100.00
804;BME280;25687;49.976;8.240;2023-02-01T00:37:35;100584.06;;;4.38;100.00
804;BME280;25687;49.976;8.240;2023-02-01T00:40:00;100580.66;;;4.39;100.00
804;BME280;25687;49.976;8.240;2023-02-01T00:42:25;100584.06;;;4.38;100.00
804;BME280;25687;49.976;8.240;2023-02-01T00:44:50;100580.53;;;4.45;100.00
804;BME280;25687;49.976;8.240;2023-02-01T00:47:16;100584.72;;;4.48;100.00
804;BME280;25687;49.976;8.240;2023-02-01T00:49:41;100578.72;;;4.50;100.00
804;BME280;25687;49.976;8.240;2023-02-01T00:52:06;100584.59;;;4.52;100.00
804;BME280;25687;49.976;8.240;2023-02-01T00:54:32;100580.34;;;4.53;100.00
804;BME280;25687;49.976;8.240;2023-02-01T00:56:57;100591.25;;;4.60;100.00
804;BME280;25687;49.976;8.240;2023-02-01T00:59:22;100585.28;;;4.61;100.00
804;BME280;25687;49.976;8.240;2023-02-01T01:01:47;100598.72;;;4.67;100.00
804;BME280;25687;49.976;8.240;2023-02-01T01:04:13;100592.91;;;4.61;100.00
804;BME280;25687;49.976;8.240;2023-02-01T01:06:38;100596.28;;;4.63;100.00
804;BME280;25687;49.976;8.240;2023-02-01T01:09:04;100603.94;;;4.63;100.00
804;BME280;25687;49.976;8.240;2023-02-01T01:11:31;100603.94;;;4.61;100.00
804;BME280;25687;49.976;8.240;2023-02-01T01:13:58;100600.56;;;4.61;100.00
804;BME280;25687;49.976;8.240;2023-02-01T01:16:24;100603.97;;;4.60;100.00
804;BME280;25687;49.976;8.240;2023-02-01T01:18:49;100606.63;;;4.57;100.00
804;BME280;25687;49.976;8.240;2023-02-01T01:21:15;100601.53;;;4.55;100.00
804;BME280;25687;49.976;8.240;2023-02-01T01:23:41;100605.75;;;4.58;100.00
804;BME280;25687;49.976;8.240;2023-02-01T01:26:07;100591.25;;;4.60;100.00
804;BME280;25687;49.976;8.240;2023-02-01T01:28:33;100595.56;;;4.56;100.00
804;BME280;25687;49.976;8.240;2023-02-01T01:30:59;100599.09;;;4.50;100.00
804;BME280;25687;49.976;8.240;2023-02-01T01:33:24;100590.47;;;4.58;100.00
804;BME280;25687;49.976;8.240;2023-02-01T01:35:49;100594.88;;;4.49;100.00
804;BME280;25687;49.976;8.240;2023-02-01T01:38:14;100594.91;;;4.46;100.00
804;BME280;25687;49.976;8.240;2023-02-01T01:40:39;100595.78;;;4.47;100.00
804;BME280;25687;49.976;8.240;2023-02-01T01:43:14;100588.06;;;4.50;100.00
804;BME280;25687;49.976;8.240;2023-02-01T01:45:40;100592.38;;;4.48;100.00
804;BME280;25687;49.976;8.240;2023-02-01T01:50:44;100583.72;;;4.53;100.00
804;BME280;25687;49.976;8.240;2023-02-01T01:53:13;100589.69;;;4.54;100.00
804;BME280;25687;49.976;8.240;2023-02-01T01:55:40;100582.81;;;4.56;100.00
804;BME280;25687;49.976;8.240;2023-02-01T01:58:17;100579.41;;;4.57;100.00
804;BME280;25687;49.976;8.240;2023-02-01T02:00:43;100581.25;;;4.50;100.00
804;BME280;25687;49.976;8.240;2023-02-01T02:03:18;100581.22;;;4.52;100.00
804;BME280;25687;49.976;8.240;2023-02-01T02:05:44;100584.47;;;4.59;100.00
804;BME280;25687;49.976;8.240;2023-02-01T02:08:09;100576.94;;;4.54;100.00
804;BME280;25687;49.976;8.240;2023-02-01T02:10:36;100575.22;;;4.55;100.00
804;BME280;25687;49.976;8.240;2023-02-01T02:13:20;100565.94;;;4.52;100.00
804;BME280;25687;49.976;8.240;2023-02-01T02:15:48;100562.56;;;4.50;100.00
804;BME280;25687;49.976;8.240;2023-02-01T02:18:19;100560.03;;;4.50;100.00
804;BME280;25687;49.976;8.240;2023-02-01T02:34:03;100563.53;;;4.46;100.00
804;BME280;25687;49.976;8.240;2023-02-01T02:36:43;100575.44;;;4.45;100.00
804;BME280;25687;49.976;8.240;2023-02-01T02:47:34;100576.34;;;4.41;100.00
804;BME280;25687;49.976;8.240;2023-02-01T02:53:07;100563.44;;;4.49;100.00
804;BME280;25687;49.976;8.240;2023-02-01T02:55:53;100563.31;;;4.55;100.00
804;BME280;25687;49.976;8.240;2023-02-01T02:58:37;100556.47;;;4.57;100.00
804;BME280;25687;49.976;8.240;2023-02-01T03:01:21;100552.25;;;4.56;100.00
804;BME280;25687;49.976;8.240;2023-02-01T03:04:05;100559.13;;;4.52;100.00
804;BME280;25687;49.976;8.240;2023-02-01T03:06:33;100552.28;;;4.55;100.00
804;BME280;25687;49.976;8.240;2023-02-01T03:08:59;100553.06;;;4.58;100.00
804;BME280;25687;49.976;8.240;2023-02-01T03:11:27;100546.38;;;4.54;100.00
804;BME280;25687;49.976;8.240;2023-02-01T03:14:13;100548.88;;;4.56;100.00
804;BME280;25687;49.976;8.240;2023-02-01T03:16:45;100549.81;;;4.51;100.00
804;BME280;25687;49.976;8.240;2023-02-01T03:19:19;100545.56;;;4.52;100.00
804;BME280;25687;49.976;8.240;2023-02-01T03:21:48;100553.09;;;4.57;100.00
804;BME280;25687;49.976;8.240;2023-02-01T03:24:20;100543.75;;;4.57;100.00
804;BME280;25687;49.976;8.240;2023-02-01T03:26:52;100545.28;;;4.64;100.00
804;BME280;25687;49.976;8.240;2023-02-01T03:29:29;100535.13;;;4.63;100.00
804;BME280;25687;49.976;8.240;2023-02-01T03:31:57;100536.06;;;4.59;100.00
804;BME280;25687;49.976;8.240;2023-02-01T03:34:22;100525.94;;;4.56;100.00
804;BME280;25687;49.976;8.240;2023-02-01T03:39:15;100522.53;;;4.57;100.00
804;BME280;25687;49.976;8.240;2023-02-01T03:41:46;100522.50;;;4.58;100.00
804;BME280;25687;49.976;8.240;2023-02-01T03:44:22;100519.84;;;4.63;100.00
804;BME280;25687;49.976;8.240;2023-02-01T03:49:36;100514.84;;;4.58;100.00
804;BME280;25687;49.976;8.240;2023-02-01T03:52:03;100512.22;;;4.61;100.00
804;BME280;25687;49.976;8.240;2023-02-01T03:54:30;100503.81;;;4.58;100.00
804;BME280;25687;49.976;8.240;2023-02-01T03:56:57;100505.53;;;4.57;100.00
804;BME280;25687;49.976;8.240;2023-02-01T03:59:24;100513.25;;;4.54;100.00
804;BME280;25687;49.976;8.240;2023-02-01T04:01:49;100514.03;;;4.58;100.00
804;BME280;25687;49.976;8.240;2023-02-01T04:04:15;100512.25;;;4.60;100.00
804;BME280;25687;49.976;8.240;2023-02-01T04:06:48;100513.03;;;4.63;100.00
804;BME280;25687;49.976;8.240;2023-02-01T04:09:13;100519.25;;;4.50;100.00
804;BME280;25687;49.976;8.240;2023-02-01T04:11:39;100521.19;;;4.40;100.00
804;BME280;25687;49.976;8.240;2023-02-01T04:14:04;100533.00;;;4.44;100.00
804;BME280;25687;49.976;8.240;2023-02-01T04:16:32;100533.81;;;4.45;100.00
804;BME280;25687;49.976;8.240;2023-02-01T04:18:57;100531.19;;;4.49;100.00
804;BME280;25687;49.976;8.240;2023-02-01T04:21:23;100528.53;;;4.52;100.00
804;BME280;25687;49.976;8.240;2023-02-01T04:23:49;100529.31;;;4.56;100.00
804;BME280;25687;49.976;8.240;2023-02-01T04:26:14;100523.44;;;4.52;100.00
804;BME280;25687;49.976;8.240;2023-02-01T04:28:41;100524.41;;;4.48;100.00
804;BME280;25687;49.976;8.240;2023-02-01T04:31:06;100521.91;;;4.47;100.00
804;BME280;25687;49.976;8.240;2023-02-01T04:33:31;100524.63;;;4.38;100.00
804;BME280;25687;49.976;8.240;2023-02-01T04:35:56;100517.13;;;4.33;100.00
804;BME280;25687;49.976;8.240;2023-02-01T04:38:22;100518.81;;;4.32;100.00
804;BME280;25687;49.976;8.240;2023-02-01T04:40:47;100533.22;;;4.33;100.00
804;BME280;25687;49.976;8.240;2023-02-01T04:43:13;100530.63;;;4.35;100.00
804;BME280;25687;49.976;8.240;2023-02-01T04:45:38;100525.44;;;4.40;100.00
804;BME280;25687;49.976;8.240;2023-02-01T04:48:03;100527.19;;;4.38;100.00
804;BME280;25687;49.976;8.240;2023-02-01T04:50:28;100525.34;;;4.44;100.00
804;BME280;25687;49.976;8.240;2023-02-01T04:52:54;100523.59;;;4.46;100.00
804;BME280;25687;49.976;8.240;2023-02-01T04:55:19;100527.78;;;4.49;100.00
804;BME280;25687;49.976;8.240;2023-02-01T04:57:44;100518.44;;;4.49;100.00
804;BME280;25687;49.976;8.240;2023-02-01T05:00:09;100521.81;;;4.51;100.00
804;BME280;25687;49.976;8.240;2023-02-01T05:02:35;100522.59;;;4.53;100.00
804;BME280;25687;49.976;8.240;2023-02-01T05:05:00;100522.53;;;4.55;100.00
804;BME280;25687;49.976;8.240;2023-02-01T05:07:25;100520.88;;;4.54;100.00
804;BME280;25687;49.976;8.240;2023-02-01T05:09:50;100520.22;;;4.46;100.00
804;BME280;25687;49.976;8.240;2023-02-01T05:12:16;100512.50;;;4.49;100.00
804;BME280;25687;49.976;8.240;2023-02-01T05:15:00;100515.06;;;4.47;100.00
804;BME280;25687;49.976;8.240;2023-02-01T05:17:25;100510.84;;;4.48;100.00
804;BME280;25687;49.976;8.240;2023-02-01T05:19:50;100509.84;;;4.53;100.00
804;BME280;25687;49.976;8.240;2023-02-01T05:22:15;100490.28;;;4.56;100.00
804;BME280;25687;49.976;8.240;2023-02-01T05:24:40;100490.22;;;4.57;100.00
804;BME280;25687;49.976;8.240;2023-02-01T05:27:05;100482.53;;;4.60;100.00
804;BME280;25687;49.976;8.240;2023-02-01T05:29:31;100475.56;;;4.67;100.00
804;BME280;25687;49.976;8.240;2023-02-01T05:31:56;100476.38;;;4.69;100.00
804;BME280;25687;49.976;8.240;2023-02-01T05:34:21;100489.25;;;4.63;100.00
804;BME280;25687;49.976;8.240;2023-02-01T05:36:46;100474.75;;;4.66;100.00
804;BME280;25687;49.976;8.240;2023-02-01T05:39:11;100501.88;;;4.67;100.00
804;BME280;25687;49.976;8.240;2023-02-01T05:41:37;100501.78;;;4.72;100.00
804;BME280;25687;49.976;8.240;2023-02-01T05:44:02;100511.09;;;4.73;100.00
804;BME280;25687;49.976;8.240;2023-02-01T05:46:27;100512.06;;;4.67;100.00
804;BME280;25687;49.976;8.240;2023-02-01T05:48:53;100506.09;;;4.68;100.00
804;BME280;25687;49.976;8.240;2023-02-01T05:51:18;100505.31;;;4.66;100.00
804;BME280;25687;49.976;8.240;2023-02-01T05:53:43;100506.09;;;4.68;100.00
804;BME280;25687;49.976;8.240;2023-02-01T05:56:08;100501.25;;;4.59;100.00
804;BME280;25687;49.976;8.240;2023-02-01T05:58:33;100505.41;;;4.62;100.00
804;BME280;25687;49.976;8.240;2023-02-01T06:00:59;100512.16;;;4.64;100.00
804;BME280;25687;49.976;8.240;2023-02-01T06:03:25;100509.81;;;4.55;100.00
804;BME280;25687;49.976;8.240;2023-02-01T06:05:50;100511.47;;;4.58;100.00
804;BME280;25687;49.976;8.240;2023-02-01T06:08:15;100512.47;;;4.50;100.00
804;BME280;25687;49.976;8.240;2023-02-01T06:10:42;100514.94;;;4.53;100.00
804;BME280;25687;49.976;8.240;2023-02-01T06:13:07;100503.94;;;4.53;100.00
804;BME280;25687;49.976;8.240;2023-02-01T06:15:33;100512.19;;;4.63;100.00
804;BME280;25687;49.976;8.240;2023-02-01T06:17:58;100522.38;;;4.63;100.00
804;BME280;25687;49.976;8.240;2023-02-01T06:20:24;100520.81;;;4.57;100.00
804;BME280;25687;49.976;8.240;2023-02-01T06:22:49;100519.22;;;4.53;100.00
804;BME280;25687;49.976;8.240;2023-02-01T06:25:14;100516.72;;;4.50;100.00
804;BME280;25687;49.976;8.240;2023-02-01T06:27:41;100515.34;;;4.35;100.00
804;BME280;25687;49.976;8.240;2023-02-01T06:30:07;100516.44;;;4.25;100.00
804;BME280;25687;49.976;8.240;2023-02-01T06:32:32;100524.28;;;4.14;100.00
804;BME280;25687;49.976;8.240;2023-02-01T06:34:58;100527.84;;;4.07;100.00
804;BME280;25687;49.976;8.240;2023-02-01T06:37:24;100534.69;;;4.03;100.00
804;BME280;25687;49.976;8.240;2023-02-01T06:39:50;100524.63;;;3.97;100.00
804;BME280;25687;49.976;8.240;2023-02-01T06:42:15;100523.06;;;3.91;100.00
804;BME280;25687;49.976;8.240;2023-02-01T06:44:40;100515.47;;;3.88;100.00
804;BME280;25687;49.976;8.240;2023-02-01T06:47:06;100512.28;;;3.80;100.00
804;BME280;25687;49.976;8.240;2023-02-01T06:49:31;100508.09;;;3.77;100.00
804;BME280;25687;49.976;8.240;2023-02-01T06:51:56;100504.69;;;3.77;100.00
804;BME280;25687;49.976;8.240;2023-02-01T06:54:21;100498.03;;;3.69;100.00
804;BME280;25687;49.976;8.240;2023-02-01T06:56:47;100502.16;;;3.75;100.00
804;BME280;25687;49.976;8.240;2023-02-01T06:59:12;100502.25;;;3.70;100.00
804;BME280;25687;49.976;8.240;2023-02-01T07:01:37;100501.47;;;3.67;100.00
804;BME280;25687;49.976;8.240;2023-02-01T07:04:02;100503.94;;;3.71;100.00
804;BME280;25687;49.976;8.240;2023-02-01T07:06:28;100498.03;;;3.69;100.00
804;BME280;25687;49.976;8.240;2023-02-01T07:08:53;100500.63;;;3.68;100.00
804;BME280;25687;49.976;8.240;2023-02-01T07:11:21;100507.31;;;3.72;100.00
804;BME280;25687;49.976;8.240;2023-02-01T07:13:46;100514.22;;;3.65;100.00
804;BME280;25687;49.976;8.240;2023-02-01T07:16:13;100501.47;;;3.68;100.00
804;BME280;25687;49.976;8.240;2023-02-01T07:18:38;100497.91;;;3.77;100.00
804;BME280;25687;49.976;8.240;2023-02-01T07:21:03;100498.81;;;3.75;100.00
804;BME280;25687;49.976;8.240;2023-02-01T07:23:29;100500.56;;;3.71;100.00
804;BME280;25687;49.976;8.240;2023-02-01T07:25:54;100500.44;;;3.77;100.00
804;BME280;25687;49.976;8.240;2023-02-01T07:28:19;100506.41;;;3.76;100.00
804;BME280;25687;49.976;8.240;2023-02-01T07:30:45;100515.72;;;3.76;100.00
804;BME280;25687;49.976;8.240;2023-02-01T07:33:15;100506.41;;;3.76;100.00
804;BME280;25687;49.976;8.240;2023-02-01T07:35:41;100506.28;;;3.82;100.00
804;BME280;25687;49.976;8.240;2023-02-01T07:38:06;100503.72;;;3.82;100.00
804;BME280;25687;49.976;8.240;2023-02-01T07:40:31;100507.97;;;3.82;100.00
804;BME280;25687;49.976;8.240;2023-02-01T07:42:57;100521.47;;;3.87;100.00
804;BME280;25687;49.976;8.240;2023-02-01T07:45:22;100533.38;;;3.85;100.00
804;BME280;25687;49.976;8.240;2023-02-01T07:47:48;100533.28;;;3.88;100.00
804;BME280;25687;49.976;8.240;2023-02-01T07:50:13;100531.53;;;3.93;100.00
804;BME280;25687;49.976;8.240;2023-02-01T07:52:39;100541.59;;;3.98;100.00
804;BME280;25687;49.976;8.240;2023-02-01T07:55:05;100550.94;;;3.97;100.00
804;BME280;25687;49.976;8.240;2023-02-01T07:57:31;100552.56;;;4.01;100.00
804;BME280;25687;49.976;8.240;2023-02-01T07:59:56;100543.06;;;4.10;100.00
804;BME280;25687;49.976;8.240;2023-02-01T08:02:40;100547.25;;;4.12;100.00
804;BME280;25687;49.976;8.240;2023-02-01T08:05:05;100542.81;;;4.22;100.00
804;BME280;25687;49.976;8.240;2023-02-01T08:07:30;100541.91;;;4.25;100.00
804;BME280;25687;49.976;8.240;2023-02-01T08:09:55;100544.22;;;4.34;100.00
804;BME280;25687;49.976;8.240;2023-02-01T08:12:21;100557.59;;;4.45;100.00
804;BME280;25687;49.976;8.240;2023-02-01T08:14:46;100549.81;;;4.51;100.00
804;BME280;25687;49.976;8.240;2023-02-01T08:17:11;100552.19;;;4.59;100.00
804;BME280;25687;49.976;8.240;2023-02-01T08:19:36;100563.03;;;4.67;100.00
804;BME280;25687;49.976;8.240;2023-02-01T08:22:01;100560.63;;;4.61;100.00
804;BME280;25687;49.976;8.240;2023-02-01T08:24:31;100564.84;;;4.62;100.00
804;BME280;25687;49.976;8.240;2023-02-01T08:26:56;100565.63;;;4.66;100.00
804;BME280;25687;49.976;8.240;2023-02-01T08:29:21;100556.94;;;4.75;100.00
804;BME280;25687;49.976;8.240;2023-02-01T08:31:47;100555.88;;;4.83;100.00
804;BME280;25687;49.976;8.240;2023-02-01T08:34:12;100559.66;;;5.03;100.00
804;BME280;25687;49.976;8.240;2023-02-01T08:36:37;100559.47;;;5.11;100.00
804;BME280;25687;49.976;8.240;2023-02-01T08:39:03;100557.53;;;5.22;100.00
804;BME280;25687;49.976;8.240;2023-02-01T08:41:30;100564.00;;;5.34;100.00
804;BME280;25687;49.976;8.240;2023-02-01T08:43:56;100547.94;;;5.63;100.00
804;BME280;25687;49.976;8.240;2023-02-01T08:46:22;100557.94;;;5.71;100.00
804;BME280;25687;49.976;8.240;2023-02-01T08:48:47;100564.13;;;5.62;100.00
804;BME280;25687;49.976;8.240;2023-02-01T08:51:14;100560.94;;;5.54;100.00
804;BME280;25687;49.976;8.240;2023-02-01T08:53:40;100565.13;;;5.57;100.00
804;BME280;25687;49.976;8.240;2023-02-01T08:56:06;100567.69;;;5.57;100.00
804;BME280;25687;49.976;8.240;2023-02-01T08:58:32;100569.84;;;5.72;100.00
804;BME280;25687;49.976;8.240;2023-02-01T09:00:57;100577.53;;;5.71;100.00
804;BME280;25687;49.976;8.240;2023-02-01T09:03:26;100574.63;;;5.85;100.00
804;BME280;25687;49.976;8.240;2023-02-01T09:05:51;100575.44;;;5.85;100.00
804;BME280;25687;49.976;8.240;2023-02-01T09:08:17;100571.03;;;5.92;100.00
804;BME280;25687;49.976;8.240;2023-02-01T09:10:43;100572.34;;;6.07;100.00
804;BME280;25687;49.976;8.240;2023-02-01T09:13:09;100582.50;;;6.08;100.00
804;BME280;25687;49.976;8.240;2023-02-01T09:15:34;100576.91;;;6.25;100.00
804;BME280;25687;49.976;8.240;2023-02-01T09:17:59;100580.44;;;6.51;100.00
804;BME280;25687;49.976;8.240;2023-02-01T09:20:24;100592.50;;;7.28;100.00
804;BME280;25687;49.976;8.240;2023-02-01T09:22:54;100581.94;;;8.35;100.00
804;BME280;25687;49.976;8.240;2023-02-01T09:25:19;100587.44;;;9.77;100.00
804;BME280;25687;49.976;8.240;2023-02-01T09:27:44;100603.13;;;11.04;95.80
804;BME280;25687;49.976;8.240;2023-02-01T09:30:10;100602.66;;;11.13;89.43
804;BME280;25687;49.976;8.240;2023-02-01T09:32:35;100613.34;;;11.41;85.45
804;BME280;25687;49.976;8.240;2023-02-01T09:35:01;100605.88;;;10.63;87.96
804;BME280;25687;49.976;8.240;2023-02-01T09:37:26;100621.41;;;10.61;90.12
804;BME280;25687;49.976;8.240;2023-02-01T09:39:52;100617.00;;;9.66;95.15
804;BME280;25687;49.976;8.240;2023-02-01T09:45:03;100632.25;;;8.38;100.00
804;BME280;25687;49.976;8.240;2023-02-01T09:47:30;100635.19;;;8.03;100.00
804;BME280;25687;49.976;8.240;2023-02-01T09:52:26;100625.81;;;7.53;100.00
804;BME280;25687;49.976;8.240;2023-02-01T09:54:54;100643.63;;;7.56;100.00
804;BME280;25687;49.976;8.240;2023-02-01T09:57:24;100637.94;;;7.48;100.00
804;BME280;25687;49.976;8.240;2023-02-01T09:59:52;100633.88;;;8.17;100.00
804;BME280;25687;49.976;8.240;2023-02-01T10:02:28;100627.53;;;8.27;100.00
804;BME280;25687;49.976;8.240;2023-02-01T10:04:56;100631.16;;;8.69;100.00
804;BME280;25687;49.976;8.240;2023-02-01T10:07:28;100636.88;;;8.04;100.00
804;BME280;25687;49.976;8.240;2023-02-01T10:10:01;100626.03;;;7.98;100.00
804;BME280;25687;49.976;8.240;2023-02-01T10:20:20;100610.03;;;8.38;100.00
804;BME280;25687;49.976;8.240;2023-02-01T10:22:53;100611.75;;;8.62;100.00
804;BME280;25687;49.976;8.240;2023-02-01T10:25:24;100594.81;;;8.80;100.00
804;BME280;25687;49.976;8.240;2023-02-01T10:27:51;100607.47;;;8.38;100.00
804;BME280;25687;49.976;8.240;2023-02-01T10:30:20;100609.38;;;8.10;100.00
804;BME280;25687;49.976;8.240;2023-02-01T10:32:47;100606.00;;;7.84;100.00
804;BME280;25687;49.976;8.240;2023-02-01T10:35:14;100609.16;;;7.67;100.00
804;BME280;25687;49.976;8.240;2023-02-01T10:37:41;100607.25;;;7.47;100.00
804;BME280;25687;49.976;8.240;2023-02-01T10:42:34;100592.94;;;7.41;100.00
804;BME280;25687;49.976;8.240;2023-02-01T10:45:00;100593.09;;;7.36;100.00
804;BME280;25687;49.976;8.240;2023-02-01T10:47:26;100591.81;;;7.50;100.00
804;BME280;25687;49.976;8.240;2023-02-01T10:52:19;100578.41;;;7.16;100.00
804;BME280;25687;49.976;8.240;2023-02-01T10:54:45;100580.69;;;6.99;100.00
804;BME280;25687;49.976;8.240;2023-02-01T10:57:21;100573.75;;;7.02;100.00
804;BME280;25687;49.976;8.240;2023-02-01T10:59:48;100576.97;;;7.07;100.00
804;BME280;25687;49.976;8.240;2023-02-01T11:04:58;100564.13;;;7.09;100.00
804;BME280;25687;49.976;8.240;2023-02-01T11:07:23;100571.38;;;6.96;100.00
804;BME280;25687;49.976;8.240;2023-02-01T11:09:51;100564.97;;;6.83;100.00
804;BME280;25687;49.976;8.240;2023-02-01T11:14:51;100570.66;;;6.64;100.00
804;BME280;25687;49.976;8.240;2023-02-01T11:17:27;100579.44;;;6.55;100.00
804;BME280;25687;49.976;8.240;2023-02-01T11:19:58;100580.63;;;6.45;100.00
804;BME280;25687;49.976;8.240;2023-02-01T11:22:24;100567.91;;;6.42;100.00
804;BME280;25687;49.976;8.240;2023-02-01T11:24:50;100564.25;;;6.51;100.00
804;BME280;25687;49.976;8.240;2023-02-01T11:27:17;100559.81;;;6.56;100.00
804;BME280;25687;49.976;8.240;2023-02-01T11:29:44;100555.06;;;6.72;100.00
804;BME280;25687;49.976;8.240;2023-02-01T11:32:11;100553.63;;;6.91;100.00
804;BME280;25687;49.976;8.240;2023-02-01T11:34:38;100558.88;;;6.87;100.00
804;BME280;25687;49.976;8.240;2023-02-01T11:37:04;100559.88;;;6.83;100.00
804;BME280;25687;49.976;8.240;2023-02-01T11:39:34;100565.41;;;6.95;100.00
804;BME280;25687;49.976;8.240;2023-02-01T11:42:12;100556.13;;;6.93;100.00
804;BME280;25687;49.976;8.240;2023-02-01T11:44:39;100556.84;;;6.97;100.00
804;BME280;25687;49.976;8.240;2023-02-01T11:49:49;100560.22;;;6.99;100.00
804;BME280;25687;49.976;8.240;2023-02-01T11:52:29;100565.91;;;7.07;100.00
804;BME280;25687;49.976;8.240;2023-02-01T11:55:14;100558.19;;;7.08;100.00
804;BME280;25687;49.976;8.240;2023-02-01T12:02:51;100555.94;;;6.99;100.00
804;BME280;25687;49.976;8.240;2023-02-01T12:08:07;100540.97;;;6.87;100.00
804;BME280;25687;49.976;8.240;2023-02-01T12:18:40;100508.75;;;7.08;100.00
804;BME280;25687;49.976;8.240;2023-02-01T12:26:46;100532.22;;;7.21;100.00
804;BME280;25687;49.976;8.240;2023-02-01T12:39:47;100516.13;;;7.17;100.00
804;BME280;25687;49.976;8.240;2023-02-01T12:42:28;100507.19;;;7.29;100.00
804;BME280;25687;49.976;8.240;2023-02-01T12:45:11;100504.22;;;7.16;100.00
804;BME280;25687;49.976;8.240;2023-02-01T12:50:42;100477.91;;;6.87;100.00
804;BME280;25687;49.976;8.240;2023-02-01T12:53:14;100489.25;;;6.78;100.00
804;BME280;25687;49.976;8.240;2023-02-01T12:55:47;100491.25;;;6.95;100.00
804;BME280;25687;49.976;8.240;2023-02-01T12:58:22;100493.13;;;6.90;100.00
804;BME280;25687;49.976;8.240;2023-02-01T13:00:51;100492.97;;;6.68;100.00
804;BME280;25687;49.976;8.240;2023-02-01T13:06:05;100484.34;;;6.72;100.00
804;BME280;25687;49.976;8.240;2023-02-01T13:11:05;100496.19;;;6.75;100.00
804;BME280;25687;49.976;8.240;2023-02-01T13:13:36;100501.31;;;6.75;100.00
804;BME280;25687;49.976;8.240;2023-02-01T13:18:39;100475.75;;;6.75;100.00
804;BME280;25687;49.976;8.240;2023-02-01T13:21:17;100473.25;;;6.99;100.00
804;BME280;25687;49.976;8.240;2023-02-01T13:23:45;100476.13;;;7.15;100.00
804;BME280;25687;49.976;8.240;2023-02-01T13:26:11;100473.66;;;7.11;100.00
804;BME280;25687;49.976;8.240;2023-02-01T13:34:31;100486.50;;;6.85;100.00
804;BME280;25687;49.976;8.240;2023-02-01T13:39:43;100474.72;;;7.06;100.00
804;BME280;25687;49.976;8.240;2023-02-01T13:42:23;100473.19;;;7.25;100.00
804;BME280;25687;49.976;8.240;2023-02-01T13:44:54;100468.47;;;7.38;100.00
804;BME280;25687;49.976;8.240;2023-02-01T13:47:31;100475.84;;;7.22;100.00
804;BME280;25687;49.976;8.240;2023-02-01T13:50:19;100484.56;;;7.17;100.00
804;BME280;25687;49.976;8.240;2023-02-01T13:52:50;100480.88;;;7.00;100.00
804;BME280;25687;49.976;8.240;2023-02-01T13:57:45;100487.72;;;7.00;100.00
804;BME280;25687;49.976;8.240;2023-02-01T14:02:50;100494.94;;;6.87;100.00
804;BME280;25687;49.976;8.240;2023-02-01T14:13:24;100497.16;;;6.71;100.00
804;BME280;25687;49.976;8.240;2023-02-01T14:16:32;100489.47;;;6.72;100.00
804;BME280;25687;49.976;8.240;2023-02-01T14:23:40;100481.06;;;6.67;100.00
804;BME280;25687;49.976;8.240;2023-02-01T14:26:07;100483.34;;;6.76;100.00
804;BME280;25687;49.976;8.240;2023-02-01T14:28:34;100468.69;;;6.82;100.00
804;BME280;25687;49.976;8.240;2023-02-01T14:31:00;100476.97;;;6.90;100.00
804;BME280;25687;49.976;8.240;2023-02-01T14:33:26;100455.69;;;6.88;100.00
804;BME280;25687;49.976;8.240;2023-02-01T14:36:11;100470.16;;;6.89;100.00
804;BME280;25687;49.976;8.240;2023-02-01T14:38:38;100462.56;;;6.87;100.00
804;BME280;25687;49.976;8.240;2023-02-01T14:43:59;100469.47;;;6.84;100.00
804;BME280;25687;49.976;8.240;2023-02-01T14:47:36;100460.97;;;6.83;100.00
804;BME280;25687;49.976;8.240;2023-02-01T14:49:31;100463.56;;;6.82;100.00
804;BME280;25687;49.976;8.240;2023-02-01T14:51:57;100471.25;;;6.82;100.00
804;BME280;25687;49.976;8.240;2023-02-01T14:54:23;100467.66;;;6.87;100.00
804;BME280;25687;49.976;8.240;2023-02-01T14:56:48;100461.22;;;6.75;100.00
804;BME280;25687;49.976;8.240;2023-02-01T14:59:16;100461.75;;;6.85;100.00
804;BME280;25687;49.976;8.240;2023-02-01T15:01:48;100454.97;;;6.84;100.00
804;BME280;25687;49.976;8.240;2023-02-01T15:04:16;100448.91;;;6.87;100.00
804;BME280;25687;49.976;8.240;2023-02-01T15:06:47;100438.63;;;6.88;100.00
804;BME280;25687;49.976;8.240;2023-02-01T15:09:17;100442.84;;;6.89;100.00
804;BME280;25687;49.976;8.240;2023-02-01T15:14:28;100453.94;;;6.90;100.00
804;BME280;25687;49.976;8.240;2023-02-01T15:16:53;100465.78;;;6.92;100.00
804;BME280;25687;49.976;8.240;2023-02-01T15:19:19;100464.84;;;6.95;100.00
804;BME280;25687;49.976;8.240;2023-02-01T15:21:46;100464.16;;;6.90;100.00
804;BME280;25687;49.976;8.240;2023-02-01T15:24:13;100471.09;;;6.86;100.00
804;BME280;25687;49.976;8.240;2023-02-01T15:26:38;100485.66;;;6.84;100.00